createdAt,value
2022-12-19T00:01:16.919Z,2.17
2022-12-19T00:06:18.678Z,2.58
2022-12-19T00:11:21.497Z,2.50
2022-12-19T00:16:24.273Z,1.65
2022-12-19T00:21:27.968Z,1.83
2022-12-19T00:26:30.790Z,2.00
2022-12-19T00:31:33.301Z,1.60
2022-12-19T00:36:35.167Z,1.58
2022-12-19T00:41:37.783Z,2.05
2022-12-19T00:46:43.888Z,2.42
2022-12-19T00:51:56.692Z,1.48
2022-12-19T00:56:58.067Z,2.08
2022-12-19T01:01:59.583Z,1.75
2022-12-19T01:07:02.328Z,2.22
2022-12-19T01:12:24.416Z,1.95
2022-12-19T01:17:26.342Z,1.67
2022-12-19T01:22:27.712Z,2.10
2022-12-19T01:27:29.077Z,1.98
2022-12-19T01:32:30.488Z,1.58
2022-12-19T01:37:31.875Z,1.95
2022-12-19T01:42:36.716Z,1.52
2022-12-19T01:48:15.932Z,2.03
2022-12-19T01:53:17.303Z,2.78
2022-12-19T01:58:18.643Z,2.00
2022-12-19T02:03:29.599Z,1.85
2022-12-19T02:08:30.995Z,2.38
2022-12-19T02:13:34.280Z,1.65
2022-12-19T02:18:51.791Z,1.67
2022-12-19T02:24:20.937Z,1.52
2022-12-19T02:29:43.904Z,2.13
2022-12-19T02:34:58.552Z,1.52
2022-12-19T02:40:26.853Z,1.45
2022-12-19T02:45:30.839Z,1.73
2022-12-19T02:50:39.140Z,2.17
2022-12-19T02:56:02.160Z,1.95
2022-12-19T03:01:27.581Z,1.95
2022-12-19T03:06:40.720Z,1.70
2022-12-19T03:11:42.992Z,1.52
2022-12-19T03:16:44.415Z,1.38
2022-12-19T03:21:48.997Z,1.20
2022-12-19T03:26:54.567Z,1.58
2022-12-19T03:31:56.847Z,1.70
2022-12-19T03:37:01.443Z,1.45
2022-12-19T03:42:21.473Z,1.38
2022-12-19T03:47:40.649Z,1.67
2022-12-19T03:52:46.949Z,1.55
2022-12-19T03:57:54.774Z,1.90
2022-12-19T04:02:56.162Z,1.17
2022-12-19T04:08:00.465Z,1.50
2022-12-19T04:13:45.344Z,1.55
2022-12-19T04:18:48.086Z,1.30
2022-12-19T04:23:52.807Z,1.70
2022-12-19T04:28:55.856Z,1.08
2022-12-19T04:33:57.234Z,1.23
2022-12-19T04:38:58.638Z,1.98
2022-12-19T04:44:00.089Z,1.70
2022-12-19T04:49:01.624Z,1.30
2022-12-19T04:54:03.050Z,1.58
2022-12-19T04:59:04.465Z,1.90
2022-12-19T05:04:05.928Z,1.40
2022-12-19T05:09:07.330Z,1.60
2022-12-19T05:14:10.553Z,1.85
2022-12-19T05:19:11.955Z,1.73
2022-12-19T05:24:13.576Z,1.77
2022-12-19T05:29:15.264Z,1.88
2022-12-19T05:34:16.721Z,1.30
2022-12-19T05:39:18.766Z,1.80
2022-12-19T05:44:20.219Z,2.00
2022-12-19T05:49:21.638Z,1.60
2022-12-19T05:54:23.166Z,1.80
2022-12-19T05:59:24.571Z,2.13
2022-12-19T06:04:25.969Z,1.48
2022-12-19T06:09:27.509Z,2.22
2022-12-19T06:14:28.876Z,1.70
2022-12-19T06:19:31.163Z,1.77
2022-12-19T06:24:32.567Z,3.13
2022-12-19T06:29:33.945Z,1.27
2022-12-19T06:35:05.170Z,2.42
2022-12-19T06:39:56.717Z,1.80
2022-12-19T06:44:58.158Z,1.95
2022-12-19T06:49:59.555Z,1.60
2022-12-19T06:55:00.929Z,1.52
2022-12-19T07:00:02.482Z,1.65
2022-12-19T07:05:05.210Z,2.67
2022-12-19T07:10:07.946Z,3.53
2022-12-19T07:15:10.419Z,1.45
2022-12-19T07:20:11.927Z,2.25
2022-12-19T07:25:13.308Z,2.20
2022-12-19T07:30:14.686Z,2.67
2022-12-19T07:35:16.479Z,3.10
2022-12-19T07:40:18.222Z,1.58
2022-12-19T07:45:19.869Z,2.08
2022-12-19T07:50:21.460Z,1.83
2022-12-19T07:55:22.866Z,2.70
2022-12-19T08:00:24.260Z,2.25
2022-12-19T08:05:25.669Z,2.17
2022-12-19T08:10:27.075Z,1.58
2022-12-19T08:15:28.467Z,1.98
2022-12-19T08:20:29.890Z,2.05
2022-12-19T08:25:31.274Z,2.00
2022-12-19T08:30:32.728Z,1.48
2022-12-19T08:35:35.555Z,1.42
2022-12-19T08:40:37.001Z,1.42
2022-12-19T08:45:39.062Z,1.88
2022-12-19T08:50:40.511Z,1.80
2022-12-19T08:55:41.901Z,1.33
2022-12-19T09:00:46.526Z,2.55
2022-12-19T09:06:08.214Z,1.70
2022-12-19T09:11:17.180Z,2.10
2022-12-19T09:16:20.161Z,1.60
2022-12-19T09:21:23.168Z,1.40
2022-12-19T09:26:25.073Z,1.48
2022-12-19T09:31:28.831Z,2.08
2022-12-19T09:36:30.295Z,1.65
2022-12-19T09:42:10.479Z,2.40
2022-12-19T09:47:23.752Z,1.65
2022-12-19T09:52:35.025Z,1.88
2022-12-19T09:58:05.904Z,1.73
2022-12-19T10:03:07.616Z,1.90
2022-12-19T10:08:16.150Z,2.80
2022-12-19T10:13:32.697Z,2.22
2022-12-19T10:18:57.463Z,2.50
2022-12-19T10:24:21.364Z,1.95
2022-12-19T10:29:34.780Z,2.58
2022-12-19T10:34:41.678Z,2.08
2022-12-19T10:40:17.637Z,2.60
2022-12-19T10:45:53.252Z,2.25
2022-12-19T10:50:54.643Z,1.63
2022-12-19T10:56:00.849Z,2.67
2022-12-19T11:01:13.407Z,2.33
2022-12-19T11:07:02.491Z,2.00
2022-12-19T11:17:06.134Z,2.28
2022-12-19T11:28:08.244Z,2.08
2022-12-19T11:30:36.957Z,2.28
2022-12-19T11:30:48.851Z,4.72
2022-12-19T11:34:05.820Z,3.53
2022-12-19T11:39:25.752Z,2.38
2022-12-19T11:44:55.667Z,2.20
2022-12-19T11:50:02.997Z,2.22
2022-12-19T11:55:23.779Z,3.58
2022-12-19T12:00:25.170Z,1.90
2022-12-19T12:05:43.160Z,2.22
2022-12-19T12:18:24.264Z,45.20
2022-12-19T12:28:36.268Z,248.43
2022-12-19T12:31:15.525Z,497.23
2022-12-19T12:31:50.784Z,553.92
2022-12-19T12:35:38.193Z,259.10
2022-12-19T12:38:36.978Z,104.63
2022-12-19T12:43:48.795Z,113.27
2022-12-19T12:48:53.903Z,136.40
2022-12-19T12:54:01.053Z,63.10
2022-12-19T12:59:13.139Z,38.40
2022-12-19T13:04:14.351Z,19.85
2022-12-19T13:09:24.807Z,13.85
2022-12-19T13:14:35.625Z,12.40
2022-12-19T13:19:38.597Z,6.93
2022-12-19T13:24:43.970Z,6.38
2022-12-19T13:30:00.637Z,3.53
2022-12-19T13:35:32.581Z,4.72
2022-12-19T13:40:34.169Z,4.95
2022-12-19T13:45:35.764Z,3.28
2022-12-19T13:50:40.039Z,40.58
2022-12-19T13:55:41.454Z,33.10
2022-12-19T14:00:42.878Z,20.33
2022-12-19T14:06:14.631Z,15.40
2022-12-19T14:11:31.400Z,9.88
2022-12-19T14:16:43.302Z,3.88
2022-12-19T14:22:10.657Z,3.38
2022-12-19T14:28:22.084Z,2.63
2022-12-19T14:33:39.211Z,2.42
2022-12-19T14:39:18.447Z,1.60
2022-12-19T14:43:57.045Z,2.08
2022-12-19T14:54:01.594Z,3.03
2022-12-19T14:59:47.663Z,3.25
2022-12-19T15:05:00.395Z,3.65
2022-12-19T15:11:09.504Z,4.40
2022-12-19T15:15:26.011Z,3.97
2022-12-19T15:20:27.422Z,3.33
2022-12-19T15:26:02.143Z,3.50
2022-12-19T15:30:52.768Z,3.60
2022-12-19T15:35:55.196Z,3.70
2022-12-19T15:40:56.585Z,4.47
2022-12-19T15:45:58.394Z,3.13
2022-12-19T15:50:59.780Z,4.65
2022-12-19T15:56:01.190Z,3.85
2022-12-19T16:01:02.832Z,3.15
2022-12-19T16:06:10.411Z,3.03
2022-12-19T16:11:22.817Z,3.13
2022-12-19T16:16:25.105Z,4.95
2022-12-19T16:21:33.617Z,3.92
2022-12-19T16:26:36.008Z,3.17
2022-12-19T16:31:37.457Z,2.75
2022-12-19T16:36:38.864Z,2.95
2022-12-19T16:41:42.662Z,2.67
2022-12-19T16:46:50.355Z,2.13
2022-12-19T16:51:52.551Z,3.45
2022-12-19T16:56:54.082Z,3.60
2022-12-19T17:01:55.756Z,3.42
2022-12-19T17:06:57.327Z,3.95
2022-12-19T17:12:00.003Z,4.03
2022-12-19T17:17:01.477Z,2.08
2022-12-19T17:22:02.902Z,3.08
2022-12-19T17:27:04.278Z,2.60
2022-12-19T17:32:08.698Z,1.73
2022-12-19T17:37:13.688Z,3.17
2022-12-19T17:42:24.641Z,2.10
2022-12-19T17:47:26.059Z,1.92
2022-12-19T17:52:27.435Z,1.77
2022-12-19T17:57:28.821Z,1.40
2022-12-19T18:02:30.328Z,2.50
2022-12-19T18:07:31.820Z,3.85
2022-12-19T18:12:33.302Z,2.90
2022-12-19T18:17:34.982Z,2.50
2022-12-19T18:22:36.439Z,1.63
2022-12-19T18:27:37.825Z,1.83
2022-12-19T18:32:39.209Z,2.80
2022-12-19T18:37:40.615Z,3.20
2022-12-19T18:42:43.036Z,2.22
2022-12-19T18:47:49.851Z,3.10
2022-12-19T18:52:53.087Z,2.92
2022-12-19T18:57:55.210Z,2.00
2022-12-19T19:03:04.206Z,2.38
2022-12-19T19:08:15.615Z,1.73
2022-12-19T19:13:17.287Z,2.33
2022-12-19T19:18:30.163Z,2.00
2022-12-19T19:23:43.320Z,2.65
2022-12-19T19:28:50.313Z,2.67
2022-12-19T19:33:59.784Z,2.85
2022-12-19T19:39:01.948Z,2.28
2022-12-19T19:44:03.343Z,1.70
2022-12-19T19:49:04.792Z,1.33
2022-12-19T19:54:06.780Z,2.00
2022-12-19T19:59:08.190Z,2.45
2022-12-19T20:04:09.679Z,1.95
2022-12-19T20:09:11.072Z,1.77
2022-12-19T20:14:12.450Z,1.45
2022-12-19T20:19:15.544Z,1.73
2022-12-19T20:24:17.097Z,1.67
2022-12-19T20:29:18.477Z,1.52
2022-12-19T20:34:20.036Z,2.35
2022-12-19T20:39:24.397Z,2.40
2022-12-19T20:44:25.791Z,1.83
2022-12-19T20:49:27.250Z,1.23
2022-12-19T20:54:28.686Z,1.98
2022-12-19T20:59:30.096Z,1.92
2022-12-19T21:04:31.933Z,1.60
2022-12-19T21:09:33.497Z,1.50
2022-12-19T21:14:34.882Z,1.80
2022-12-19T21:19:36.308Z,2.15
2022-12-19T21:24:37.678Z,2.17
2022-12-19T21:29:39.321Z,2.15
2022-12-19T21:34:40.696Z,2.42
2022-12-19T21:39:42.090Z,2.10
2022-12-19T21:44:43.544Z,2.25
2022-12-19T21:49:44.947Z,2.05
2022-12-19T21:54:46.349Z,2.75
2022-12-19T21:59:47.727Z,1.92
2022-12-19T22:04:49.648Z,1.63
2022-12-19T22:09:51.050Z,2.80
2022-12-19T22:14:52.486Z,2.92
2022-12-19T22:19:53.854Z,3.38
2022-12-19T22:24:55.293Z,2.08
2022-12-19T22:29:57.277Z,1.95
2022-12-19T22:34:58.691Z,2.17
2022-12-19T22:40:00.245Z,1.58
2022-12-19T22:45:01.931Z,1.83
2022-12-19T22:50:03.554Z,2.45
2022-12-19T22:55:06.041Z,1.40
2022-12-19T23:00:09.839Z,2.78
2022-12-19T23:05:11.280Z,1.88
2022-12-19T23:10:12.681Z,3.03
2022-12-19T23:15:14.091Z,1.70
2022-12-19T23:20:15.590Z,1.60
2022-12-19T23:25:17.014Z,2.05
2022-12-19T23:30:18.486Z,2.08
2022-12-19T23:35:19.873Z,1.95
2022-12-19T23:40:21.242Z,1.90
2022-12-19T23:45:22.738Z,2.28
2022-12-19T23:50:25.027Z,2.05
2022-12-19T23:55:26.586Z,1.80
